Time;durP1;ratioP1;P1;durP2;ratioP2;P2;SDS_P1;SDS_P2;PMS_P1;PMS_P2;Temp;Humidity;BMP_temperature;BMP_pressure;BME280_temperature;BME280_humidity;BME280_pressure;Samples;Min_cycle;Max_cycle;Signal;HPM_P1;HPM_P2
2023/06/12 00:01:50;;;;;;;6.45;5.95;;;23.00;99.90;;;;;;5031411;28;20048;-75
2023/06/12 00:04:16;;;;;;;7.97;7.13;;;22.80;99.90;;;;;;5033455;28;20466;-76
2023/06/12 00:06:42;;;;;;;6.90;6.30;;;22.50;99.90;;;;;;5031958;28;20025;-76
2023/06/12 00:09:09;;;;;;;6.05;5.55;;;22.40;99.90;;;;;;5032023;28;20034;-76
2023/06/12 00:11:35;;;;;;;6.82;6.28;;;22.40;99.90;;;;;;5015371;28;20041;-76
2023/06/12 00:14:01;;;;;;;5.82;5.30;;;22.50;99.90;;;;;;5015215;28;20044;-76
2023/06/12 00:16:28;;;;;;;5.63;4.97;;;22.50;99.90;;;;;;5032612;28;20479;-76
2023/06/12 00:18:55;;;;;;;5.25;4.75;;;22.50;99.90;;;;;;5031859;28;20041;-76
2023/06/12 00:21:22;;;;;;;5.63;5.13;;;22.70;99.90;;;;;;5032936;28;20041;-76
2023/06/12 00:23:49;;;;;;;6.00;5.13;;;22.80;99.90;;;;;;5031749;28;20037;-76
2023/06/12 00:26:15;;;;;;;5.22;4.80;;;22.90;99.90;;;;;;5031559;28;20033;-76
2023/06/12 00:28:41;;;;;;;5.75;5.00;;;23.00;99.90;;;;;;5031209;28;20049;-76
2023/06/12 00:31:07;;;;;;;5.28;4.85;;;23.00;99.90;;;;;;5047774;28;20042;-76
2023/06/12 00:33:33;;;;;;;5.38;4.88;;;22.90;99.90;;;;;;5031346;28;20040;-76
2023/06/12 00:35:59;;;;;;;6.68;4.57;;;22.70;99.90;;;;;;5031244;28;20033;-76
2023/06/12 00:38:25;;;;;;;5.80;5.30;;;22.70;99.90;;;;;;5031770;28;20489;-76
2023/06/12 00:40:51;;;;;;;7.90;4.97;;;22.50;99.90;;;;;;5014437;28;20042;-76
2023/06/12 00:43:17;;;;;;;5.03;4.63;;;22.50;99.90;;;;;;5032546;28;20041;-76
2023/06/12 00:45:43;;;;;;;6.20;4.25;;;22.50;99.90;;;;;;5031752;28;20037;-76
2023/06/12 00:48:10;;;;;;;5.72;5.05;;;22.40;99.90;;;;;;5042597;28;20512;-75
2023/06/12 00:50:37;;;;;;;4.88;4.35;;;22.40;99.90;;;;;;5047507;28;20044;-76
2023/06/12 00:53:03;;;;;;;6.35;4.95;;;22.20;99.90;;;;;;5031333;28;20026;-75
2023/06/12 00:55:31;;;;;;;4.97;4.50;;;22.00;99.90;;;;;;5031326;28;21050;-76
2023/06/12 00:57:57;;;;;;;5.82;5.05;;;22.00;99.90;;;;;;5030868;28;20037;-76
2023/06/12 01:00:25;;;;;;;5.07;4.63;;;22.00;99.90;;;;;;5030516;28;20052;-75
2023/06/12 01:02:56;;;;;;;5.53;4.85;;;22.00;99.90;;;;;;5031330;28;20034;-75
2023/06/12 01:05:32;;;;;;;5.30;4.88;;;21.90;99.90;;;;;;5031013;28;20036;-76
2023/06/12 01:08:17;;;;;;;9.25;5.32;;;21.90;99.90;;;;;;5031417;28;20100;-76
2023/06/12 01:10:51;;;;;;;5.55;5.00;;;22.10;99.90;;;;;;5031311;28;20017;-75
2023/06/12 01:13:21;;;;;;;6.07;4.32;;;22.00;99.90;;;;;;5014365;28;20037;-76
2023/06/12 01:15:47;;;;;;;6.47;4.40;;;21.80;99.90;;;;;;5031772;28;20033;-76
2023/06/12 01:18:14;;;;;;;5.95;5.13;;;21.80;99.90;;;;;;5031190;28;20497;-75
2023/06/12 01:20:41;;;;;;;5.72;5.10;;;21.80;99.90;;;;;;5031011;28;20034;-76
2023/06/12 01:23:17;;;;;;;6.78;5.30;;;22.00;99.90;;;;;;5030868;28;20033;-76
2023/06/12 01:26:10;;;;;;;5.70;5.22;;;22.10;99.90;;;;;;5031545;28;20025;-76
2023/06/12 01:28:55;;;;;;;5.82;5.25;;;22.10;99.90;;;;;;5032358;28;20037;-76
2023/06/12 01:31:25;;;;;;;5.40;4.90;;;21.90;99.90;;;;;;5046752;28;20053;-76
2023/06/12 01:34:12;;;;;;;5.05;4.55;;;21.90;99.90;;;;;;5031996;28;20032;-76
2023/06/12 01:36:41;;;;;;;4.78;4.38;;;21.70;99.90;;;;;;5031447;28;20049;-76
2023/06/12 01:39:07;;;;;;;6.05;4.30;;;21.60;99.90;;;;;;5047637;28;20025;-76
2023/06/12 01:41:34;;;;;;;5.55;4.60;;;21.50;99.90;;;;;;5046727;28;20491;-76
2023/06/12 01:44:10;;;;;;;6.70;4.57;;;21.40;99.90;;;;;;5063979;28;20045;-76
2023/06/12 01:46:36;;;;;;;5.43;4.93;;;21.40;99.90;;;;;;5031049;28;20049;-76
2023/06/12 01:49:06;;;;;;;5.07;4.68;;;21.30;99.90;;;;;;5082467;28;20478;-76
2023/06/12 01:51:32;;;;;;;4.63;4.30;;;21.20;99.90;;;;;;5039015;28;20029;-76
2023/06/12 01:53:58;;;;;;;5.10;4.63;;;21.10;99.90;;;;;;5030348;28;20048;-76
2023/06/12 01:56:25;;;;;;;6.80;4.97;;;21.00;99.90;;;;;;5030226;28;20505;-75
2023/06/12 01:58:52;;;;;;;5.30;4.90;;;21.00;99.90;;;;;;5030790;28;20029;-75
2023/06/12 02:01:18;;;;;;;5.43;4.93;;;21.00;99.90;;;;;;5029329;28;20041;-76
2023/06/12 02:03:47;;;;;;;6.72;5.22;;;21.10;99.90;;;;;;5024094;28;20038;-76
2023/06/12 02:06:17;;;;;;;5.97;5.38;;;21.10;99.90;;;;;;5021944;28;20026;-75
2023/06/12 02:08:43;;;;;;;6.32;5.45;;;21.10;99.90;;;;;;5032298;28;20034;-76
2023/06/12 02:11:09;;;;;;;5.95;5.45;;;21.00;99.90;;;;;;5041522;28;20041;-76
2023/06/12 02:13:36;;;;;;;6.13;5.53;;;20.90;99.90;;;;;;5029262;28;20030;-75
2023/06/12 02:16:03;;;;;;;5.78;5.05;;;20.80;99.90;;;;;;5029914;28;20048;-75
2023/06/12 02:18:30;;;;;;;6.07;5.57;;;20.60;99.90;;;;;;5030588;28;20025;-76
2023/06/12 02:20:56;;;;;;;6.25;4.85;;;20.60;99.90;;;;;;5030337;28;20029;-76
2023/06/12 02:23:22;;;;;;;5.90;5.28;;;20.60;99.90;;;;;;5032542;28;20041;-75
2023/06/12 02:25:48;;;;;;;5.18;4.78;;;20.70;99.90;;;;;;5033633;28;20030;-76
2023/06/12 02:28:14;;;;;;;6.32;5.72;;;20.80;99.90;;;;;;5049483;28;20038;-76
2023/06/12 02:30:40;;;;;;;5.80;5.30;;;20.90;99.90;;;;;;5065244;28;20040;-76
2023/06/12 02:33:09;;;;;;;5.95;5.45;;;20.80;99.90;;;;;;5033887;28;20033;-76
2023/06/12 02:35:36;;;;;;;6.35;5.32;;;20.80;99.90;;;;;;5048626;28;20889;-75
2023/06/12 02:38:02;;;;;;;5.63;5.13;;;20.80;99.90;;;;;;5033470;28;20056;-75
2023/06/12 02:40:28;;;;;;;6.18;5.43;;;20.80;99.90;;;;;;5033694;28;20021;-76
2023/06/12 02:42:54;;;;;;;6.40;5.70;;;21.00;99.90;;;;;;5034901;28;20038;-76
2023/06/12 02:45:26;;;;;;;7.05;5.65;;;20.90;99.90;;;;;;5032921;28;20049;-76
2023/06/12 02:47:52;;;;;;;6.07;5.55;;;20.90;99.90;;;;;;5042313;28;20045;-76
2023/06/12 02:50:18;;;;;;;6.40;5.80;;;20.80;99.90;;;;;;5053256;28;20025;-75
2023/06/12 02:52:44;;;;;;;6.30;5.55;;;20.80;99.90;;;;;;5016625;28;20041;-76
2023/06/12 02:55:10;;;;;;;6.07;5.53;;;20.70;99.90;;;;;;5033498;28;20037;-76
2023/06/12 02:57:36;;;;;;;8.50;5.30;;;20.70;99.90;;;;;;5034928;28;20029;-75
2023/06/12 03:00:03;;;;;;;7.40;5.82;;;20.70;99.90;;;;;;5034297;28;20040;-73
2023/06/12 03:02:29;;;;;;;6.30;5.70;;;20.80;99.90;;;;;;5034247;28;20029;-76
2023/06/12 03:04:55;;;;;;;5.95;5.35;;;20.90;99.90;;;;;;5033687;28;20038;-75
2023/06/12 03:07:21;;;;;;;6.45;5.85;;;20.80;99.90;;;;;;5034111;28;20029;-76
2023/06/12 03:09:47;;;;;;;5.75;5.15;;;20.70;99.90;;;;;;5033315;28;20037;-76
2023/06/12 03:12:14;;;;;;;7.35;5.88;;;20.60;99.90;;;;;;5033119;28;20455;-76
2023/06/12 03:14:40;;;;;;;6.32;5.72;;;20.50;99.90;;;;;;5034532;28;20513;-76
2023/06/12 03:17:06;;;;;;;7.68;5.63;;;20.60;99.90;;;;;;5032540;28;20044;-76
2023/06/12 03:19:32;;;;;;;5.93;5.43;;;20.60;99.90;;;;;;5033238;28;20032;-75
2023/06/12 03:21:58;;;;;;;6.05;5.45;;;20.60;99.90;;;;;;5032608;28;20029;-75
2023/06/12 03:24:26;;;;;;;6.43;5.82;;;20.70;99.90;;;;;;5032912;28;20033;-76
2023/06/12 03:26:54;;;;;;;7.72;5.88;;;20.90;99.90;;;;;;5032244;28;20034;-75
2023/06/12 03:29:20;;;;;;;6.45;5.85;;;21.10;99.90;;;;;;5034288;28;20030;-76
2023/06/12 03:31:46;;;;;;;6.63;5.85;;;21.30;99.90;;;;;;5032809;28;20064;-76
2023/06/12 03:34:12;;;;;;;6.72;6.13;;;21.30;99.90;;;;;;5049239;28;20033;-75
2023/06/12 03:36:39;;;;;;;7.88;6.05;;;21.00;99.90;;;;;;5031943;28;20033;-76
2023/06/12 03:39:05;;;;;;;6.28;5.68;;;20.90;99.90;;;;;;5065979;28;20030;-76
2023/06/12 03:41:31;;;;;;;7.88;5.50;;;20.80;99.90;;;;;;5049061;28;20029;-75
2023/06/12 03:43:58;;;;;;;6.95;6.25;;;20.60;99.90;;;;;;5049246;28;20375;-76
2023/06/12 03:46:24;;;;;;;7.28;5.53;;;20.60;99.90;;;;;;5065516;28;20032;-76
2023/06/12 03:48:50;;;;;;;6.90;5.45;;;20.70;99.90;;;;;;5049094;28;20049;-75
2023/06/12 03:51:16;;;;;;;6.32;5.80;;;20.70;99.90;;;;;;5047501;28;20025;-75
2023/06/12 03:53:43;;;;;;;8.20;5.95;;;20.70;99.90;;;;;;5015928;28;20041;-76
2023/06/12 03:56:09;;;;;;;6.18;5.57;;;20.80;99.90;;;;;;5032513;28;20367;-76
2023/06/12 03:58:35;;;;;;;7.45;5.93;;;20.70;99.90;;;;;;5032493;28;20040;-76
2023/06/12 04:01:01;;;;;;;6.82;5.97;;;20.70;99.90;;;;;;5032828;28;20395;-75
2023/06/12 04:03:27;;;;;;;6.72;6.00;;;20.70;99.90;;;;;;5032478;28;20038;-75
2023/06/12 04:05:53;;;;;;;6.85;5.90;;;20.80;99.90;;;;;;5031518;28;20028;-76
2023/06/12 04:08:20;;;;;;;7.88;5.95;;;20.80;99.90;;;;;;5033440;28;20029;-75
2023/06/12 04:10:46;;;;;;;8.60;6.38;;;20.50;99.90;;;;;;5032062;28;20025;-76
2023/06/12 04:13:12;;;;;;;7.13;6.43;;;20.50;99.90;;;;;;5032008;28;20029;-76
2023/06/12 04:15:39;;;;;;;6.32;5.72;;;20.60;99.90;;;;;;5031426;28;20025;-76
2023/06/12 04:18:06;;;;;;;10.00;6.80;;;20.60;99.90;;;;;;5032243;28;20115;-76
2023/06/12 04:20:33;;;;;;;7.80;5.82;;;20.60;99.90;;;;;;5032529;28;20028;-76
2023/06/12 04:23:04;;;;;;;6.50;5.90;;;20.60;99.90;;;;;;5031838;28;20036;-76
2023/06/12 04:25:33;;;;;;;;;;;20.40;99.90;;;;;;5032176;28;20045;-76
2023/06/12 04:27:59;;;;;;;6.43;5.82;;;20.40;99.90;;;;;;5065167;28;19905;-76
2023/06/12 04:30:25;;;;;;;8.40;6.07;;;20.30;99.90;;;;;;5047676;28;20029;-76
2023/06/12 04:32:53;;;;;;;7.90;6.40;;;20.20;99.90;;;;;;5048310;28;20025;-75
2023/06/12 04:35:19;;;;;;;7.72;6.38;;;19.90;99.90;;;;;;5032310;28;20093;-76
2023/06/12 04:37:48;;;;;;;7.05;6.35;;;19.70;99.90;;;;;;5032660;28;20033;-76
2023/06/12 04:40:15;;;;;;;8.30;6.32;;;19.70;99.90;;;;;;5031435;28;20024;-76
2023/06/12 04:42:43;;;;;;;7.63;6.88;;;19.70;99.90;;;;;;5031070;28;20044;-76
2023/06/12 04:45:12;;;;;;;9.32;6.82;;;19.70;99.90;;;;;;5031895;28;20033;-75
2023/06/12 04:47:39;;;;;;;8.40;7.55;;;19.70;99.90;;;;;;5041377;28;20049;-76
2023/06/12 04:50:08;;;;;;;7.88;7.25;;;19.70;99.90;;;;;;5051289;28;20029;-76
2023/06/12 04:52:34;;;;;;;7.75;6.75;;;19.90;99.90;;;;;;5047331;28;20049;-76
2023/06/12 04:55:00;;;;;;;7.30;6.60;;;19.90;99.90;;;;;;5048028;28;20044;-76
2023/06/12 04:57:27;;;;;;;7.97;6.32;;;20.10;99.90;;;;;;5047883;28;20034;-76
2023/06/12 04:59:53;;;;;;;7.68;6.22;;;20.40;99.90;;;;;;5031448;28;20044;-76
2023/06/12 05:02:19;;;;;;;7.10;6.32;;;20.40;99.90;;;;;;5031778;28;20034;-76
2023/06/12 05:04:45;;;;;;;9.00;6.53;;;20.30;99.90;;;;;;5031148;28;20033;-76
2023/06/12 05:07:17;;;;;;;7.20;6.45;;;20.20;99.90;;;;;;5032067;28;20029;-76
2023/06/12 05:09:43;;;;;;;7.07;6.28;;;20.30;99.90;;;;;;5031421;28;20029;-76
2023/06/12 05:12:11;;;;;;;6.10;5.50;;;20.30;99.90;;;;;;5031148;28;20041;-76
2023/06/12 05:14:38;;;;;;;11.15;5.55;;;20.40;99.90;;;;;;5031258;28;20033;-76
2023/06/12 05:17:05;;;;;;;7.07;5.45;;;20.50;99.90;;;;;;5030467;28;20034;-75
2023/06/12 05:19:31;;;;;;;7.53;6.30;;;20.60;99.90;;;;;;5031926;28;20029;-75
2023/06/12 05:21:57;;;;;;;6.97;5.53;;;20.60;99.90;;;;;;5031969;28;20478;-76
2023/06/12 05:24:23;;;;;;;7.50;5.63;;;20.70;99.90;;;;;;5032049;28;20034;-76
2023/06/12 05:26:50;;;;;;;6.50;5.38;;;20.90;99.90;;;;;;5014461;28;20474;-77
2023/06/12 05:29:17;;;;;;;7.60;5.40;;;21.00;99.90;;;;;;5031087;28;20036;-76
2023/06/12 05:31:43;;;;;;;8.57;5.30;;;21.10;99.90;;;;;;5029802;28;20478;-73
2023/06/12 05:34:09;;;;;;;6.10;5.47;;;21.30;99.90;;;;;;5031158;28;20037;-76
2023/06/12 05:36:36;;;;;;;5.18;4.68;;;21.40;99.90;;;;;;5031669;28;20033;-76
2023/06/12 05:39:05;;;;;;;8.93;6.15;;;21.50;99.90;;;;;;5047253;28;20033;-76
2023/06/12 05:41:32;;;;;;;6.15;5.55;;;21.40;99.90;;;;;;5031686;28;20391;-76
2023/06/12 05:43:58;;;;;;;6.30;4.88;;;21.60;99.90;;;;;;5031925;28;20041;-76
2023/06/12 05:46:24;;;;;;;5.30;4.80;;;21.60;99.90;;;;;;5029553;28;20040;-76
2023/06/12 05:48:50;;;;;;;6.97;6.30;;;21.70;99.90;;;;;;5030750;28;20036;-75
2023/06/12 05:51:16;;;;;;;9.20;7.78;;;21.90;99.90;;;;;;5041301;28;20030;-76
2023/06/12 05:53:44;;;;;;;8.60;6.90;;;22.10;99.90;;;;;;5030654;28;20459;-76
2023/06/12 05:56:12;;;;;;;9.13;6.97;;;22.20;99.90;;;;;;5032370;28;20021;-76
2023/06/12 05:58:40;;;;;;;8.82;6.40;;;22.40;99.90;;;;;;5034746;28;20386;-76
2023/06/12 06:01:09;;;;;;;7.57;6.80;;;22.60;99.90;;;;;;5034730;28;20040;-76
2023/06/12 06:03:35;;;;;;;6.53;5.95;;;22.70;99.90;;;;;;5034018;28;20049;-76
2023/06/12 06:06:01;;;;;;;9.20;6.35;;;23.00;99.90;;;;;;5034469;28;20028;-76
2023/06/12 06:08:27;;;;;;;6.63;6.03;;;23.00;99.90;;;;;;5034318;28;20033;-76
2023/06/12 06:10:53;;;;;;;7.20;6.57;;;22.80;99.90;;;;;;5034264;28;20398;-77
2023/06/12 06:13:19;;;;;;;7.03;6.43;;;22.80;99.90;;;;;;5035577;28;20367;-76
2023/06/12 06:15:47;;;;;;;9.10;5.90;;;22.80;99.90;;;;;;5034582;28;20037;-76
2023/06/12 06:18:13;;;;;;;9.73;6.28;;;22.90;99.90;;;;;;5034461;28;20451;-75
2023/06/12 06:20:39;;;;;;;11.18;7.07;;;23.20;99.90;;;;;;5035268;28;20032;-76
2023/06/12 06:23:05;;;;;;;6.63;6.10;;;23.40;99.90;;;;;;5034305;28;20025;-76
2023/06/12 06:25:31;;;;;;;9.88;5.88;;;23.40;99.90;;;;;;5033716;28;20037;-75
2023/06/12 06:27:57;;;;;;;6.13;5.43;;;23.50;99.90;;;;;;5067399;28;20025;-76
2023/06/12 06:30:23;;;;;;;6.25;5.60;;;23.60;99.90;;;;;;5049615;28;20037;-76
2023/06/12 06:32:50;;;;;;;5.68;5.28;;;23.70;99.90;;;;;;5034162;28;20073;-76
2023/06/12 06:35:16;;;;;;;7.38;5.25;;;23.90;99.90;;;;;;5033450;28;20034;-77
2023/06/12 06:37:42;;;;;;;6.10;5.43;;;23.90;99.90;;;;;;5034953;28;20105;-76
2023/06/12 06:40:12;;;;;;;6.35;5.35;;;24.00;99.90;;;;;;5035277;28;20029;-76
2023/06/12 06:42:38;;;;;;;5.53;5.03;;;24.10;99.90;;;;;;5050110;28;20386;-76
2023/06/12 06:45:05;;;;;;;5.45;5.05;;;24.10;99.90;;;;;;5034080;28;20041;-76
2023/06/12 06:47:31;;;;;;;6.80;6.15;;;24.00;99.90;;;;;;5055319;28;20037;-76
2023/06/12 06:49:57;;;;;;;6.18;5.50;;;23.90;99.90;;;;;;5054917;28;20029;-76
2023/06/12 06:52:23;;;;;;;7.03;5.55;;;23.70;99.90;;;;;;5034917;28;20056;-76
2023/06/12 06:54:50;;;;;;;6.43;5.82;;;23.70;99.90;;;;;;5033805;28;20026;-76
2023/06/12 06:57:16;;;;;;;7.13;5.30;;;23.50;99.90;;;;;;5033340;28;20076;-76
2023/06/12 06:59:42;;;;;;;6.32;4.90;;;23.60;99.90;;;;;;5033545;28;20021;-76
2023/06/12 07:02:08;;;;;;;8.77;5.45;;;23.80;99.90;;;;;;5032611;28;20037;-75
2023/06/12 07:04:34;;;;;;;5.57;5.10;;;23.80;99.90;;;;;;5034514;28;20038;-75
2023/06/12 07:07:00;;;;;;;7.40;4.90;;;23.80;99.90;;;;;;5034212;28;20037;-75
2023/06/12 07:09:26;;;;;;;5.70;5.20;;;23.70;99.90;;;;;;5034527;28;20037;-75
2023/06/12 07:11:52;;;;;;;8.15;5.30;;;23.80;99.90;;;;;;5034255;28;20034;-75
2023/06/12 07:14:18;;;;;;;5.13;4.63;;;23.80;99.90;;;;;;5034081;28;20033;-75
2023/06/12 07:16:45;;;;;;;8.18;5.53;;;24.00;99.90;;;;;;5033847;28;20037;-75
2023/06/12 07:19:11;;;;;;;7.22;5.78;;;23.90;99.90;;;;;;5033264;28;20041;-75
2023/06/12 07:21:37;;;;;;;6.30;5.78;;;23.80;99.90;;;;;;5032996;28;20025;-74
2023/06/12 07:24:04;;;;;;;5.25;4.85;;;23.80;99.90;;;;;;5034087;28;20045;-75
2023/06/12 07:26:30;;;;;;;5.65;5.05;;;24.10;99.90;;;;;;5034072;28;20026;-75
2023/06/12 07:28:56;;;;;;;5.28;4.72;;;24.20;99.90;;;;;;5033894;28;20394;-76
2023/06/12 07:31:22;;;;;;;5.20;4.70;;;24.30;99.90;;;;;;5055364;28;20029;-75
2023/06/12 07:33:48;;;;;;;5.15;4.72;;;24.40;99.90;;;;;;5029598;28;20395;-76
2023/06/12 07:36:15;;;;;;;6.22;4.95;;;24.50;99.90;;;;;;5022778;28;20036;-75
2023/06/12 07:38:41;;;;;;;5.35;4.95;;;24.60;99.90;;;;;;5034244;28;20037;-75
2023/06/12 07:41:07;;;;;;;5.07;4.53;;;24.60;99.90;;;;;;5032476;28;20470;-75
2023/06/12 07:43:34;;;;;;;6.03;5.53;;;24.70;99.90;;;;;;5033510;28;20025;-74
2023/06/12 07:46:01;;;;;;;6.40;4.60;;;24.80;99.90;;;;;;5033201;28;20033;-75
2023/06/12 07:48:27;;;;;;;5.80;4.80;;;24.90;99.90;;;;;;5045922;28;20050;-75
2023/06/12 07:50:54;;;;;;;6.10;5.03;;;24.90;99.90;;;;;;5045611;28;20498;-75
2023/06/12 07:53:20;;;;;;;4.75;4.22;;;24.90;99.90;;;;;;5032729;28;20411;-76
2023/06/12 07:55:46;;;;;;;5.70;5.20;;;24.90;99.90;;;;;;5032272;28;20021;-75
2023/06/12 07:58:13;;;;;;;6.10;5.28;;;25.10;99.90;;;;;;5033485;28;20025;-75
2023/06/12 08:00:39;;;;;;;5.55;5.05;;;25.00;99.90;;;;;;5032903;28;20033;-75
2023/06/12 08:03:05;;;;;;;6.47;5.97;;;24.90;99.90;;;;;;5032331;28;20048;-75
2023/06/12 08:05:31;;;;;;;5.70;5.25;;;24.80;99.90;;;;;;5033123;28;20390;-74
2023/06/12 08:07:58;;;;;;;6.57;6.07;;;24.80;99.90;;;;;;5015825;28;20472;-75
2023/06/12 08:10:24;;;;;;;5.82;5.32;;;24.90;99.90;;;;;;5031997;28;20044;-75
2023/06/12 08:12:50;;;;;;;6.82;6.32;;;25.00;99.90;;;;;;5031404;28;20033;-75
2023/06/12 08:15:16;;;;;;;5.72;5.30;;;25.20;99.90;;;;;;5032501;28;20025;-75
2023/06/12 08:17:42;;;;;;;6.63;6.05;;;25.00;99.90;;;;;;5033292;28;20029;-76
2023/06/12 08:20:10;;;;;;;6.15;5.47;;;25.10;99.90;;;;;;5031592;28;20037;-75
2023/06/12 08:22:36;;;;;;;6.80;6.03;;;25.10;99.90;;;;;;5028707;28;20030;-75
2023/06/12 08:25:03;;;;;;;6.43;5.45;;;25.30;99.90;;;;;;5020443;28;20041;-75
2023/06/12 08:27:30;;;;;;;5.90;5.30;;;25.50;99.90;;;;;;5015048;28;20029;-75
2023/06/12 08:29:56;;;;;;;4.68;4.30;;;25.40;99.90;;;;;;5033043;28;20493;-75
2023/06/12 08:32:22;;;;;;;5.50;5.00;;;25.50;99.90;;;;;;5032179;28;20033;-75
2023/06/12 08:34:48;;;;;;;4.93;4.53;;;25.60;99.90;;;;;;5031359;28;20048;-75
2023/06/12 08:37:14;;;;;;;5.38;4.72;;;25.80;99.90;;;;;;5031237;28;20085;-75
2023/06/12 08:39:40;;;;;;;5.32;4.47;;;26.00;99.90;;;;;;5032950;28;20037;-75
2023/06/12 08:42:14;;;;;;;4.80;4.40;;;26.10;99.90;;;;;;5032258;28;20038;-75
2023/06/12 08:44:40;;;;;;;5.45;4.20;;;26.10;99.90;;;;;;5031681;28;20033;-75
2023/06/12 08:47:06;;;;;;;4.97;4.15;;;26.20;99.90;;;;;;5032899;28;20371;-75
2023/06/12 08:49:32;;;;;;;7.03;4.80;;;26.30;99.90;;;;;;5051498;28;20033;-75
2023/06/12 08:52:00;;;;;;;8.07;4.97;;;26.30;99.90;;;;;;5052270;28;20068;-75
2023/06/12 08:54:26;;;;;;;5.85;4.72;;;26.50;99.90;;;;;;5047708;28;20064;-75
2023/06/12 08:56:55;;;;;;;5.32;4.40;;;26.50;99.90;;;;;;5064210;28;20029;-75
2023/06/12 08:59:21;;;;;;;4.75;4.35;;;26.60;99.90;;;;;;5047775;28;20036;-75
2023/06/12 09:01:52;;;;;;;5.30;4.80;;;26.70;99.90;;;;;;5031834;28;20030;-75
2023/06/12 09:04:31;;;;;;;5.00;4.60;;;26.80;99.90;;;;;;5031515;28;20471;-75
2023/06/12 09:07:03;;;;;;;4.60;4.20;;;26.90;99.90;;;;;;5030494;28;20049;-74
2023/06/12 09:09:38;;;;;;;4.90;4.40;;;26.90;99.90;;;;;;5031165;28;20025;-75
2023/06/12 09:12:07;;;;;;;6.03;4.32;;;27.00;99.90;;;;;;5014473;28;20544;-75
2023/06/12 09:14:34;;;;;;;5.20;4.65;;;27.40;99.90;;;;;;5014706;28;20049;-76
2023/06/12 09:17:04;;;;;;;5.40;4.90;;;27.60;99.90;;;;;;5014080;28;20037;-75
2023/06/12 09:19:41;;;;;;;4.97;4.57;;;27.50;99.90;;;;;;5031878;28;20022;-73
2023/06/12 09:22:07;;;;;;;5.70;5.13;;;27.30;99.90;;;;;;5032105;28;20052;-76
2023/06/12 09:24:33;;;;;;;5.63;4.60;;;27.40;99.90;;;;;;5030621;28;20490;-75
2023/06/12 09:27:02;;;;;;;5.20;4.47;;;27.60;99.90;;;;;;5030752;28;20588;-75
2023/06/12 09:29:33;;;;;;;4.88;4.45;;;27.50;99.90;;;;;;5031061;28;20026;-75
2023/06/12 09:32:03;;;;;;;6.15;5.75;;;27.80;99.90;;;;;;5030961;28;20041;-75
2023/06/12 09:34:33;;;;;;;6.55;5.95;;;28.10;99.90;;;;;;5031245;28;20030;-75
2023/06/12 09:37:00;;;;;;;6.57;5.93;;;28.20;99.90;;;;;;5030562;28;20140;-75
2023/06/12 09:39:30;;;;;;;6.70;6.05;;;28.30;99.90;;;;;;5030837;28;20029;-75
2023/06/12 09:41:56;;;;;;;6.38;5.78;;;28.40;99.30;;;;;;5030663;28;20025;-75
2023/06/12 09:44:26;;;;;;;5.68;5.18;;;28.20;98.10;;;;;;5030849;28;20046;-75
2023/06/12 09:46:52;;;;;;;5.80;5.30;;;28.20;98.80;;;;;;5030378;28;20037;-74
2023/06/12 09:49:22;;;;;;;6.15;5.55;;;28.20;98.40;;;;;;5050795;28;20474;-75
2023/06/12 09:51:50;;;;;;;5.13;4.63;;;28.30;98.90;;;;;;5036892;28;20049;-75
2023/06/12 09:54:17;;;;;;;5.32;4.82;;;28.20;99.10;;;;;;5014226;28;20502;-75
2023/06/12 09:56:44;;;;;;;6.10;5.60;;;28.10;99.20;;;;;;5030554;28;20383;-78
2023/06/12 09:59:19;;;;;;;5.78;5.38;;;28.20;99.90;;;;;;5030843;28;20029;-78
2023/06/12 10:01:51;;;;;;;7.03;6.63;;;28.30;98.50;;;;;;5030435;28;20029;-77
2023/06/12 10:04:39;;;;;;;6.63;6.03;;;28.40;98.30;;;;;;5030783;28;20040;-78
2023/06/12 10:07:16;;;;;;;6.97;6.47;;;28.60;98.90;;;;;;5029878;28;20037;-78
2023/06/12 10:09:46;;;;;;;6.88;6.38;;;28.90;98.20;;;;;;5031813;28;20025;-75
2023/06/12 10:12:12;;;;;;;6.72;6.22;;;29.00;97.60;;;;;;5030546;28;20105;-75
2023/06/12 10:14:38;;;;;;;6.95;6.43;;;28.90;98.70;;;;;;5030633;28;20042;-75
2023/06/12 10:17:04;;;;;;;6.65;6.15;;;28.80;98.20;;;;;;5029801;28;20513;-77
2023/06/12 10:19:31;;;;;;;7.07;6.57;;;28.80;98.50;;;;;;5031810;28;20030;-77
2023/06/12 10:21:57;;;;;;;6.70;6.18;;;28.80;98.90;;;;;;5029810;28;20033;-77
2023/06/12 10:24:23;;;;;;;7.13;5.80;;;29.00;99.00;;;;;;5030374;28;20034;-77
2023/06/12 10:26:51;;;;;;;6.35;5.90;;;29.10;99.00;;;;;;5013881;28;20079;-77
2023/06/12 10:29:33;;;;;;;7.07;6.40;;;29.20;98.60;;;;;;5030568;28;20025;-77
2023/06/12 10:32:08;;;;;;;8.18;7.40;;;29.50;99.50;;;;;;5029702;28;20054;-77
2023/06/12 10:34:41;;;;;;;7.35;6.65;;;29.40;98.00;;;;;;5030533;28;20471;-77
2023/06/12 10:37:30;;;;;;;7.57;7.07;;;29.20;98.50;;;;;;5030037;28;20037;-77
2023/06/12 10:40:21;;;;;;;7.10;6.50;;;29.00;97.70;;;;;;5063662;28;20026;-77
2023/06/12 10:42:53;;;;;;;6.60;6.10;;;29.10;97.80;;;;;;5066081;28;20033;-77
2023/06/12 10:45:23;;;;;;;6.47;5.95;;;29.00;97.40;;;;;;5034316;28;20042;-77
2023/06/12 10:50:34;;;;;;;7.15;6.55;;;29.30;97.40;;;;;;5055585;28;20041;-77
2023/06/12 10:53:02;;;;;;;8.05;7.45;;;29.40;96.60;;;;;;5016348;28;20033;-77
2023/06/12 10:55:28;;;;;;;6.95;6.45;;;29.60;97.20;;;;;;5033912;28;20025;-77
2023/06/12 10:57:55;;;;;;;6.50;6.00;;;29.50;96.10;;;;;;5034764;28;20044;-77
2023/06/12 11:00:23;;;;;;;7.05;6.55;;;29.60;97.00;;;;;;5033131;28;20033;-75
2023/06/12 11:03:31;;;;;;;8.30;7.80;;;30.00;96.80;;;;;;5033658;28;20029;-75
2023/06/12 11:06:08;;;;;;;6.82;6.35;;;30.20;96.60;;;;;;5015696;28;20072;-75
2023/06/12 11:08:34;;;;;;;7.13;6.72;;;30.40;96.10;;;;;;5034011;28;20030;-75
2023/06/12 11:11:07;;;;;;;6.55;6.13;;;30.60;96.30;;;;;;5032973;28;20041;-75
2023/06/12 11:13:35;;;;;;;6.65;6.25;;;30.80;95.10;;;;;;5033544;28;20386;-74
2023/06/12 11:16:01;;;;;;;8.45;6.78;;;30.40;95.30;;;;;;5032434;28;20029;-75
2023/06/12 11:18:27;;;;;;;6.93;6.35;;;30.10;96.00;;;;;;5034394;28;20044;-75
2023/06/12 11:20:54;;;;;;;7.85;7.20;;;30.30;95.70;;;;;;5032024;28;20037;-74
2023/06/12 11:23:25;;;;;;;7.60;6.82;;;30.40;95.50;;;;;;5016791;28;20421;-75
2023/06/12 11:25:55;;;;;;;7.22;6.82;;;30.60;96.40;;;;;;5033820;28;20041;-75
2023/06/12 11:28:23;;;;;;;7.55;7.05;;;30.90;96.10;;;;;;5049519;28;20041;-75
2023/06/12 11:30:53;;;;;;;7.72;7.13;;;31.10;95.50;;;;;;5048657;28;20402;-76
2023/06/12 11:33:20;;;;;;;;;;;30.90;94.20;;;;;;5032899;28;20037;-75
2023/06/12 11:35:47;;;;;;;6.90;6.30;;;30.40;95.00;;;;;;5048548;28;20361;-74
2023/06/12 11:38:22;;;;;;;6.75;6.28;;;30.40;95.40;;;;;;5032668;28;20509;-74
2023/06/12 11:40:50;;;;;;;6.97;6.47;;;30.30;95.00;;;;;;5065332;28;20025;-75
2023/06/12 11:43:21;;;;;;;6.65;6.25;;;29.90;95.20;;;;;;5065772;28;20491;-75
2023/06/12 11:45:47;;;;;;;;;;;30.10;95.50;;;;;;5048982;28;20045;-75
2023/06/12 11:48:16;;;;;;;6.18;5.72;;;30.20;95.70;;;;;;5052617;28;19924;-75
2023/06/12 11:50:46;;;;;;;9.73;6.47;;;30.10;94.80;;;;;;5047453;28;20488;-75
2023/06/12 11:53:13;;;;;;;6.55;5.95;;;30.00;95.40;;;;;;5033122;28;20025;-75
2023/06/12 11:55:39;;;;;;;6.57;6.07;;;30.20;95.60;;;;;;5032341;28;20383;-74
2023/06/12 11:58:05;;;;;;;6.07;5.65;;;30.30;95.40;;;;;;5032254;28;20045;-75
2023/06/12 12:00:33;;;;;;;7.28;6.72;;;30.60;95.00;;;;;;5031626;28;20041;-75
2023/06/12 12:03:01;;;;;;;7.90;7.40;;;30.80;95.10;;;;;;5032453;28;20036;-75
2023/06/12 12:05:33;;;;;;;7.47;6.78;;;30.90;94.70;;;;;;5031832;28;20037;-75
2023/06/12 12:08:03;;;;;;;7.35;6.85;;;31.00;94.20;;;;;;5033454;28;20021;-75
2023/06/12 12:10:30;;;;;;;;;;;31.00;94.80;;;;;;5032390;28;20037;-75
2023/06/12 12:13:03;;;;;;;7.47;7.03;;;30.60;94.00;;;;;;5032157;28;19905;-75
2023/06/12 12:15:34;;;;;;;7.47;6.88;;;30.50;95.00;;;;;;5031551;28;20029;-75
2023/06/12 12:18:01;;;;;;;7.20;6.53;;;30.30;94.70;;;;;;5033075;28;20021;-75
2023/06/12 12:20:28;;;;;;;6.97;5.93;;;29.90;95.60;;;;;;5033057;28;20034;-75
2023/06/12 12:22:55;;;;;;;6.43;5.13;;;29.60;96.30;;;;;;5032108;28;20022;-74
2023/06/12 12:25:25;;;;;;;6.53;5.72;;;29.30;97.00;;;;;;5032787;28;20041;-75
2023/06/12 12:27:51;;;;;;;5.53;5.13;;;29.30;97.30;;;;;;5031695;28;20084;-75
2023/06/12 12:30:18;;;;;;;5.47;5.07;;;29.20;97.20;;;;;;5064340;28;20492;-74
2023/06/12 12:32:54;;;;;;;5.35;4.85;;;29.20;97.90;;;;;;5031668;28;20037;-75
2023/06/12 12:35:21;;;;;;;7.65;5.25;;;29.30;97.80;;;;;;5032781;28;20034;-75
2023/06/12 12:37:49;;;;;;;5.28;4.78;;;29.20;97.40;;;;;;5031800;28;20037;-75
2023/06/12 12:40:15;;;;;;;5.30;4.85;;;28.90;97.70;;;;;;5047908;28;20032;-75
2023/06/12 12:42:45;;;;;;;6.18;5.57;;;28.70;98.00;;;;;;5031774;28;20030;-77
2023/06/12 12:45:12;;;;;;;7.97;5.25;;;28.70;98.00;;;;;;5030957;28;20037;-77
2023/06/12 12:47:44;;;;;;;5.43;4.95;;;28.70;97.70;;;;;;5037782;28;20041;-78
2023/06/12 12:50:10;;;;;;;5.90;5.40;;;28.60;97.70;;;;;;5051113;28;20021;-77
2023/06/12 12:52:37;;;;;;;6.60;5.53;;;28.40;97.50;;;;;;5031591;28;20025;-77
2023/06/12 12:55:05;;;;;;;6.22;5.78;;;28.40;98.40;;;;;;5031447;28;20049;-78